createdAt,value
2018-06-23T00:01:45.944Z,13.60
2018-06-23T00:04:19.774Z,13.70
2018-06-23T00:06:53.593Z,13.60
2018-06-23T00:09:28.068Z,13.40
2018-06-23T00:12:01.872Z,13.40
2018-06-23T00:14:35.589Z,13.40
2018-06-23T00:17:10.195Z,13.20
2018-06-23T00:19:44.824Z,13.20
2018-06-23T00:22:18.689Z,13.20
2018-06-23T00:24:53.225Z,13.10
2018-06-23T00:27:27.588Z,13.10
2018-06-23T00:30:01.345Z,13.10
2018-06-23T00:32:35.820Z,13.20
2018-06-23T00:35:09.691Z,13.20
2018-06-23T00:37:43.297Z,13.10
2018-06-23T00:40:17.132Z,13.10
2018-06-23T00:42:51.797Z,13.20
2018-06-23T00:45:26.997Z,13.30
2018-06-23T00:48:00.931Z,13.30
2018-06-23T00:50:34.928Z,13.30
2018-06-23T00:53:08.801Z,13.20
2018-06-23T00:55:42.459Z,13.10
2018-06-23T00:58:16.332Z,13.10
2018-06-23T01:00:50.993Z,13.20
2018-06-23T01:03:24.604Z,13.10
2018-06-23T01:05:58.456Z,13.10
2018-06-23T01:08:32.686Z,13.20
2018-06-23T01:11:06.441Z,13.10
2018-06-23T01:13:40.090Z,13.20
2018-06-23T01:16:14.687Z,13.10
2018-06-23T01:18:48.256Z,13.10
2018-06-23T01:21:22.052Z,13.10
2018-06-23T01:23:56.601Z,13.00
2018-06-23T01:26:30.397Z,13.00
2018-06-23T01:29:04.942Z,12.70
2018-06-23T01:31:38.846Z,12.70
2018-06-23T01:34:12.765Z,12.70
2018-06-23T01:36:46.495Z,12.70
2018-06-23T01:39:20.361Z,12.70
2018-06-23T01:41:54.220Z,12.70
2018-06-23T01:44:28.025Z,12.70
2018-06-23T01:47:01.837Z,12.70
2018-06-23T01:49:36.556Z,12.70
2018-06-23T01:52:11.157Z,12.60
2018-06-23T01:54:44.880Z,12.60
2018-06-23T01:57:18.693Z,12.50
2018-06-23T01:59:53.212Z,12.50
2018-06-23T02:02:27.012Z,12.50
2018-06-23T02:05:01.627Z,12.60
2018-06-23T02:07:36.220Z,12.50
2018-06-23T02:10:10.105Z,12.40
2018-06-23T02:12:44.668Z,12.40
2018-06-23T02:15:19.135Z,12.30
2018-06-23T02:20:58.194Z,12.30
2018-06-23T02:26:41.136Z,12.20
2018-06-23T02:32:20.476Z,12.40
2018-06-23T02:34:58.069Z,12.40
2018-06-23T02:37:31.813Z,12.40
2018-06-23T02:40:05.540Z,12.40
2018-06-23T02:42:40.057Z,12.30
2018-06-23T02:45:13.855Z,12.30
2018-06-23T02:47:48.484Z,12.30
2018-06-23T02:50:22.355Z,12.30
2018-06-23T02:52:56.140Z,12.30
2018-06-23T02:55:29.978Z,12.30
2018-06-23T02:58:03.825Z,12.20
2018-06-23T03:00:37.659Z,12.20
2018-06-23T03:03:11.468Z,12.20
2018-06-23T03:05:45.305Z,12.20
2018-06-23T03:08:19.045Z,12.20
2018-06-23T03:10:52.742Z,12.20
2018-06-23T03:13:26.568Z,12.10
2018-06-23T03:16:00.391Z,12.10
2018-06-23T03:18:34.097Z,12.00
2018-06-23T03:21:07.797Z,12.10
2018-06-23T03:23:42.600Z,12.10
2018-06-23T03:26:16.334Z,12.10
2018-06-23T03:28:50.213Z,12.10
2018-06-23T03:31:23.948Z,12.00
2018-06-23T03:33:58.490Z,12.00
2018-06-23T03:36:32.234Z,12.00
2018-06-23T03:39:06.888Z,12.10
2018-06-23T03:41:41.283Z,12.10
2018-06-23T03:44:14.912Z,12.10
2018-06-23T03:46:48.516Z,12.10
2018-06-23T03:49:22.326Z,12.00
2018-06-23T03:51:56.136Z,11.90
2018-06-23T03:54:29.815Z,11.90
2018-06-23T03:57:03.620Z,11.90
2018-06-23T03:59:38.272Z,12.00
2018-06-23T04:02:12.182Z,12.00
2018-06-23T04:04:45.780Z,12.10
2018-06-23T04:07:19.723Z,12.20
2018-06-23T04:09:54.282Z,12.30
2018-06-23T04:12:28.892Z,12.40
2018-06-23T04:15:02.612Z,12.40
2018-06-23T04:17:36.314Z,12.50
2018-06-23T04:20:10.272Z,12.70
2018-06-23T04:22:44.101Z,12.80
2018-06-23T04:25:17.948Z,12.70
2018-06-23T04:27:52.558Z,12.70
2018-06-23T04:30:26.584Z,12.70
2018-06-23T04:33:00.320Z,12.60
2018-06-23T04:35:34.905Z,12.40
2018-06-23T04:38:09.530Z,12.40
2018-06-23T04:40:44.052Z,12.30
2018-06-23T04:43:18.694Z,12.30
2018-06-23T04:45:52.430Z,12.30
2018-06-23T04:48:26.305Z,12.20
2018-06-23T04:51:00.096Z,12.30
2018-06-23T04:53:33.946Z,12.40
2018-06-23T04:56:08.630Z,12.60
2018-06-23T04:58:42.412Z,12.60
2018-06-23T05:01:16.778Z,12.80
2018-06-23T05:03:50.497Z,12.80
2018-06-23T05:06:25.115Z,13.10
2018-06-23T05:08:59.719Z,13.70
2018-06-23T05:11:33.563Z,13.70
2018-06-23T05:14:08.175Z,15.60
2018-06-23T05:16:42.796Z,16.10
2018-06-23T05:19:16.445Z,16.10
2018-06-23T05:21:50.071Z,16.10
2018-06-23T05:24:23.955Z,15.40
2018-06-23T05:26:57.690Z,14.70
2018-06-23T05:29:32.245Z,14.10
2018-06-23T05:32:06.784Z,13.90
2018-06-23T05:34:41.307Z,13.50
2018-06-23T05:37:15.061Z,13.50
2018-06-23T05:39:49.612Z,13.40
2018-06-23T05:42:24.101Z,13.50
2018-06-23T05:44:58.029Z,13.40
2018-06-23T05:47:31.678Z,13.40
2018-06-23T05:50:05.496Z,13.10
2018-06-23T05:52:39.966Z,13.30
2018-06-23T05:55:14.453Z,13.30
2018-06-23T05:57:48.223Z,13.30
2018-06-23T06:00:22.145Z,13.40
2018-06-23T06:02:56.708Z,13.60
2018-06-23T06:05:30.616Z,13.50
2018-06-23T06:08:05.131Z,13.70
2018-06-23T06:10:38.896Z,13.70
2018-06-23T06:13:13.464Z,14.00
2018-06-23T06:15:47.309Z,14.00
2018-06-23T06:18:22.012Z,14.10
2018-06-23T06:20:56.650Z,14.10
2018-06-23T06:23:30.353Z,14.10
2018-06-23T06:26:04.224Z,14.10
2018-06-23T06:28:38.776Z,14.10
2018-06-23T06:31:13.367Z,14.10
2018-06-23T06:33:47.205Z,14.20
2018-06-23T06:36:21.717Z,14.50
2018-06-23T06:38:55.577Z,14.50
2018-06-23T06:41:30.072Z,14.70
2018-06-23T06:44:03.905Z,14.70
2018-06-23T06:46:37.605Z,14.60
2018-06-23T06:49:11.510Z,14.60
2018-06-23T06:51:45.430Z,14.70
2018-06-23T06:54:19.326Z,14.70
2018-06-23T06:56:53.092Z,14.60
2018-06-23T06:59:26.949Z,14.50
2018-06-23T07:02:00.673Z,14.60
2018-06-23T07:04:35.256Z,14.80
2018-06-23T07:07:09.042Z,14.70
2018-06-23T07:09:42.893Z,14.70
2018-06-23T07:12:16.698Z,14.90
2018-06-23T07:14:50.437Z,14.90
2018-06-23T07:17:24.328Z,15.00
2018-06-23T07:19:58.079Z,15.20
2018-06-23T07:22:31.930Z,15.30
2018-06-23T07:25:05.772Z,15.50
2018-06-23T07:27:39.691Z,15.30
2018-06-23T07:30:13.503Z,15.50
2018-06-23T07:32:48.195Z,15.50
2018-06-23T07:35:21.965Z,15.70
2018-06-23T07:37:56.580Z,16.00
2018-06-23T07:40:30.164Z,15.90
2018-06-23T07:43:04.048Z,16.10
2018-06-23T07:45:37.749Z,16.20
2018-06-23T07:48:12.284Z,16.20
2018-06-23T07:50:46.072Z,16.20
2018-06-23T07:53:19.844Z,16.30
2018-06-23T07:55:53.644Z,16.40
2018-06-23T07:58:28.229Z,16.40
2018-06-23T08:01:02.076Z,16.30
2018-06-23T08:03:36.642Z,16.10
2018-06-23T08:06:11.201Z,15.90
2018-06-23T08:08:45.102Z,15.90
2018-06-23T08:11:18.944Z,16.00
2018-06-23T08:13:52.711Z,16.30
2018-06-23T08:16:27.366Z,16.50
2018-06-23T08:19:01.048Z,16.50
2018-06-23T08:21:34.930Z,16.90
2018-06-23T08:24:08.648Z,17.60
2018-06-23T08:26:42.752Z,18.50
2018-06-23T08:29:16.432Z,18.60
2018-06-23T08:31:50.045Z,18.10
2018-06-23T08:34:23.831Z,17.80
2018-06-23T08:36:57.698Z,17.90
2018-06-23T08:39:32.228Z,18.50
2018-06-23T08:42:06.002Z,18.50
2018-06-23T08:44:39.958Z,18.30
2018-06-23T08:47:13.769Z,18.10
2018-06-23T08:49:47.444Z,18.30
2018-06-23T08:52:21.122Z,18.10
2018-06-23T08:54:55.691Z,18.30
2018-06-23T08:57:29.361Z,18.30
2018-06-23T09:00:03.196Z,19.50
2018-06-23T09:02:36.944Z,20.20
2018-06-23T09:05:10.884Z,20.10
2018-06-23T09:07:44.547Z,20.40
2018-06-23T09:10:18.321Z,21.00
2018-06-23T09:12:52.821Z,20.10
2018-06-23T09:15:27.237Z,20.10
2018-06-23T09:18:01.120Z,19.50
2018-06-23T09:20:35.537Z,18.60
2018-06-23T09:23:09.336Z,18.50
2018-06-23T09:25:43.921Z,18.80
2018-06-23T09:28:18.301Z,19.40
2018-06-23T09:30:52.169Z,19.40
2018-06-23T09:33:26.621Z,19.30
2018-06-23T09:36:00.518Z,19.20
2018-06-23T09:38:35.246Z,18.60
2018-06-23T09:41:09.803Z,18.50
2018-06-23T09:43:43.488Z,18.50
2018-06-23T09:46:18.024Z,18.30
2018-06-23T09:48:52.682Z,18.40
2018-06-23T09:51:26.433Z,18.40
2018-06-23T09:54:01.018Z,18.50
2018-06-23T09:56:35.565Z,18.60
2018-06-23T09:59:09.246Z,18.50
2018-06-23T10:01:43.121Z,18.60
2018-06-23T10:04:17.596Z,18.60
2018-06-23T10:06:52.001Z,18.60
2018-06-23T10:09:25.887Z,18.60
2018-06-23T10:12:00.414Z,20.40
2018-06-23T10:14:34.198Z,20.30
2018-06-23T10:17:07.910Z,20.40
2018-06-23T10:19:41.635Z,19.80
2018-06-23T10:22:15.384Z,19.10
2018-06-23T10:24:49.060Z,19.00
2018-06-23T10:27:22.959Z,18.70
2018-06-23T10:29:56.757Z,18.60
2018-06-23T10:32:30.686Z,18.80
2018-06-23T10:35:04.637Z,19.20
2018-06-23T10:37:38.517Z,20.10
2018-06-23T10:40:12.339Z,20.30
2018-06-23T10:42:46.189Z,20.90
2018-06-23T10:45:19.861Z,21.00
2018-06-23T10:47:54.303Z,20.80
2018-06-23T10:50:28.201Z,20.80
2018-06-23T10:53:02.800Z,20.30
2018-06-23T10:55:36.705Z,20.30
2018-06-23T10:58:11.268Z,20.50
2018-06-23T11:00:45.046Z,20.50
2018-06-23T11:03:19.586Z,20.60
2018-06-23T11:05:53.469Z,20.50
2018-06-23T11:08:27.376Z,20.30
2018-06-23T11:11:02.241Z,20.40
2018-06-23T11:13:35.869Z,20.40
2018-06-23T11:16:09.478Z,21.00
2018-06-23T11:18:43.280Z,21.10
2018-06-23T11:21:17.161Z,20.90
2018-06-23T11:23:51.652Z,20.50
2018-06-23T11:26:26.309Z,20.30
2018-06-23T11:29:00.087Z,20.30
2018-06-23T11:31:33.916Z,20.10
2018-06-23T11:34:07.696Z,20.00
2018-06-23T11:36:41.484Z,19.80
2018-06-23T11:39:15.148Z,19.90
2018-06-23T11:41:49.018Z,20.00
2018-06-23T11:44:22.736Z,20.00
2018-06-23T11:46:56.396Z,20.30
2018-06-23T11:49:30.948Z,20.40
2018-06-23T11:52:04.826Z,20.40
2018-06-23T11:54:39.453Z,20.80
2018-06-23T11:57:13.412Z,20.80
2018-06-23T11:59:47.224Z,20.80
2018-06-23T12:02:20.989Z,20.70
2018-06-23T12:04:54.760Z,20.10
2018-06-23T12:07:29.479Z,19.60
2018-06-23T12:10:03.301Z,19.60
2018-06-23T12:12:37.247Z,19.50
2018-06-23T12:15:10.941Z,19.70
2018-06-23T12:17:44.825Z,19.70
2018-06-23T12:20:19.308Z,19.90
2018-06-23T12:22:53.818Z,20.30
2018-06-23T12:25:28.471Z,20.20
2018-06-23T12:28:02.921Z,19.80
2018-06-23T12:30:36.552Z,19.70
2018-06-23T12:33:10.284Z,19.80
2018-06-23T12:35:44.088Z,19.60
2018-06-23T12:38:17.767Z,19.80
2018-06-23T12:40:51.556Z,19.80
2018-06-23T12:43:25.991Z,20.20
2018-06-23T12:45:59.886Z,20.20
2018-06-23T12:48:33.928Z,20.30
2018-06-23T12:51:07.826Z,20.40
2018-06-23T12:53:41.554Z,20.30
2018-06-23T12:56:15.695Z,20.30
2018-06-23T12:58:49.377Z,20.30
2018-06-23T13:01:22.938Z,20.30
2018-06-23T13:03:57.612Z,20.40
2018-06-23T13:06:31.349Z,20.40
2018-06-23T13:09:06.026Z,19.90
2018-06-23T13:11:39.931Z,19.90
2018-06-23T13:14:13.690Z,19.80
2018-06-23T13:16:47.356Z,19.90
2018-06-23T13:19:21.296Z,19.90
2018-06-23T13:21:55.155Z,20.00
2018-06-23T13:24:29.704Z,20.00
2018-06-23T13:27:04.305Z,20.20
2018-06-23T13:29:38.056Z,20.20
2018-06-23T13:32:12.408Z,20.40
2018-06-23T13:34:46.920Z,20.40
2018-06-23T13:37:20.589Z,20.30
2018-06-23T13:39:54.984Z,20.30
2018-06-23T13:42:28.873Z,20.30
2018-06-23T13:45:02.614Z,20.30
2018-06-23T13:47:36.353Z,20.50
2018-06-23T13:50:10.204Z,20.50
2018-06-23T13:52:44.794Z,20.60
2018-06-23T13:55:18.625Z,20.60
2018-06-23T13:57:52.333Z,20.80
2018-06-23T14:00:26.829Z,20.40
2018-06-23T14:03:00.629Z,20.40
2018-06-23T14:05:35.271Z,20.50
2018-06-23T14:08:09.144Z,20.50
2018-06-23T14:10:44.467Z,20.70
2018-06-23T14:13:18.928Z,20.80
2018-06-23T14:15:52.777Z,20.80
2018-06-23T14:18:27.253Z,21.00
2018-06-23T14:21:01.136Z,21.00
2018-06-23T14:23:35.819Z,20.70
2018-06-23T14:26:09.639Z,20.70
2018-06-23T14:28:43.492Z,20.70
2018-06-23T14:31:17.229Z,20.70
2018-06-23T14:33:50.853Z,20.70
2018-06-23T14:36:24.405Z,20.80
2018-06-23T14:38:58.164Z,20.80
2018-06-23T14:41:31.993Z,20.90
2018-06-23T14:44:05.837Z,20.90
2018-06-23T14:46:40.378Z,20.90
2018-06-23T14:49:14.276Z,20.90
2018-06-23T14:51:48.802Z,21.10
2018-06-23T14:54:22.677Z,21.10
2018-06-23T14:56:56.446Z,21.20
2018-06-23T14:59:30.958Z,21.30
2018-06-23T15:02:04.694Z,21.30
2018-06-23T15:04:39.293Z,21.40
2018-06-23T15:07:13.110Z,21.40
2018-06-23T15:12:57.464Z,21.40
2018-06-23T15:15:31.237Z,21.50
2018-06-23T15:18:05.327Z,21.30
2018-06-23T15:20:39.174Z,21.10
2018-06-23T15:23:13.670Z,21.10
2018-06-23T15:25:47.416Z,21.10
2018-06-23T15:28:21.404Z,21.00
2018-06-23T15:30:55.261Z,21.00
2018-06-23T15:33:29.118Z,21.10
2018-06-23T15:36:03.675Z,21.00
2018-06-23T15:38:37.405Z,21.00
2018-06-23T15:41:11.264Z,21.00
2018-06-23T15:43:45.767Z,21.10
2018-06-23T15:46:20.403Z,21.10
2018-06-23T15:48:54.283Z,21.10
2018-06-23T15:51:28.052Z,21.00
2018-06-23T15:54:02.810Z,21.00
2018-06-23T15:56:38.129Z,20.90
2018-06-23T15:59:11.805Z,20.90
2018-06-23T16:01:45.664Z,21.10
2018-06-23T16:04:19.491Z,21.10
2018-06-23T16:06:53.461Z,21.10
2018-06-23T16:09:27.140Z,21.10
2018-06-23T16:12:00.859Z,21.20
2018-06-23T16:14:35.374Z,21.10
2018-06-23T16:17:10.006Z,21.20
2018-06-23T16:19:44.615Z,21.10
2018-06-23T16:22:19.190Z,20.90
2018-06-23T16:24:52.915Z,20.90
2018-06-23T16:27:26.514Z,21.00
2018-06-23T16:30:00.278Z,20.80
2018-06-23T16:32:34.775Z,20.80
2018-06-23T16:35:09.512Z,20.80
2018-06-23T16:37:43.172Z,20.80
2018-06-23T16:40:17.869Z,21.00
2018-06-23T16:42:51.556Z,21.00
2018-06-23T16:45:26.136Z,21.00
2018-06-23T16:48:00.006Z,21.00
2018-06-23T16:50:33.762Z,21.00
2018-06-23T16:53:07.384Z,21.00
2018-06-23T16:55:41.791Z,21.00
2018-06-23T16:58:15.591Z,21.00
2018-06-23T17:00:49.217Z,21.00
2018-06-23T17:03:23.011Z,20.80
2018-06-23T17:05:57.504Z,20.60
2018-06-23T17:08:31.277Z,20.60
2018-06-23T17:11:05.060Z,20.60
2018-06-23T17:13:38.845Z,20.50
2018-06-23T17:16:13.465Z,20.40
2018-06-23T17:18:47.278Z,20.40
2018-06-23T17:21:21.792Z,20.30
2018-06-23T17:23:55.399Z,20.20
2018-06-23T17:26:29.177Z,20.20
2018-06-23T17:29:03.018Z,20.10
2018-06-23T17:31:36.633Z,20.10
2018-06-23T17:34:10.345Z,20.00
2018-06-23T17:36:44.890Z,19.90
2018-06-23T17:39:18.690Z,19.90
2018-06-23T17:41:52.417Z,19.90
2018-06-23T17:44:26.092Z,19.90
2018-06-23T17:46:59.796Z,19.80
2018-06-23T17:49:34.353Z,19.70
2018-06-23T17:52:07.992Z,19.70
2018-06-23T17:54:42.503Z,19.90
2018-06-23T17:57:16.340Z,19.80
2018-06-23T17:59:50.827Z,19.70
2018-06-23T18:02:24.525Z,19.70
2018-06-23T18:04:58.336Z,19.70
2018-06-23T18:07:32.164Z,19.70
2018-06-23T18:10:05.900Z,19.70
2018-06-23T18:12:39.536Z,19.60
2018-06-23T18:15:14.093Z,19.30
2018-06-23T18:17:48.523Z,19.20
2018-06-23T18:20:23.100Z,19.10
2018-06-23T18:22:56.864Z,19.00
2018-06-23T18:25:31.527Z,19.10
2018-06-23T18:28:05.386Z,19.10
2018-06-23T18:30:39.065Z,19.00
2018-06-23T18:33:13.516Z,18.80
2018-06-23T18:35:48.687Z,18.70
2018-06-23T18:38:22.409Z,18.70
2018-06-23T18:40:57.077Z,18.60
2018-06-23T18:43:31.533Z,18.60
2018-06-23T18:46:05.313Z,18.60
2018-06-23T18:48:39.024Z,18.50
2018-06-23T18:51:12.866Z,18.40
2018-06-23T18:53:46.507Z,18.50
2018-06-23T18:56:20.299Z,18.50
2018-06-23T18:58:53.913Z,18.40
2018-06-23T19:01:27.726Z,18.40
2018-06-23T19:04:01.513Z,18.40
2018-06-23T19:06:35.457Z,18.30
2018-06-23T19:09:10.097Z,18.20
2018-06-23T19:11:44.662Z,18.10
2018-06-23T19:14:18.353Z,18.10
2018-06-23T19:16:52.171Z,18.00
2018-06-23T19:19:27.534Z,17.80
2018-06-23T19:22:01.259Z,17.80
2018-06-23T19:24:35.118Z,17.80
2018-06-23T19:27:08.905Z,17.90
2018-06-23T19:29:42.661Z,17.90
2018-06-23T19:32:17.849Z,17.90
2018-06-23T19:34:51.710Z,17.80
2018-06-23T19:37:25.541Z,17.90
2018-06-23T19:39:59.191Z,17.80
2018-06-23T19:42:33.045Z,17.80
2018-06-23T19:45:08.419Z,17.60
2018-06-23T19:47:42.163Z,17.60
2018-06-23T19:50:16.045Z,17.60
2018-06-23T19:52:49.844Z,17.50
2018-06-23T19:55:24.468Z,17.50
2018-06-23T19:57:58.195Z,17.50
2018-06-23T20:00:31.876Z,17.50
2018-06-23T20:03:05.676Z,17.50
2018-06-23T20:05:39.392Z,17.40
2018-06-23T20:08:13.050Z,17.30
2018-06-23T20:10:47.648Z,17.30
2018-06-23T20:13:21.456Z,17.30
2018-06-23T20:15:56.031Z,17.30
2018-06-23T20:18:29.772Z,17.30
2018-06-23T20:21:04.374Z,17.30
2018-06-23T20:23:38.021Z,17.30
2018-06-23T20:26:11.745Z,17.20
2018-06-23T20:28:45.512Z,17.20
2018-06-23T20:31:19.332Z,17.20
2018-06-23T20:33:53.105Z,17.20
2018-06-23T20:36:26.810Z,17.20
2018-06-23T20:39:01.328Z,17.20
2018-06-23T20:41:35.301Z,17.20
2018-06-23T20:44:09.168Z,17.10
2018-06-23T20:46:43.035Z,17.10
2018-06-23T20:49:16.830Z,17.10
2018-06-23T20:51:50.595Z,17.10
2018-06-23T20:54:24.505Z,17.10
2018-06-23T20:56:58.274Z,17.00
2018-06-23T20:59:32.115Z,16.90
2018-06-23T21:02:05.914Z,16.90
2018-06-23T21:04:39.857Z,16.80
2018-06-23T21:07:13.755Z,16.70
2018-06-23T21:09:47.601Z,16.70
2018-06-23T21:12:22.952Z,16.70
2018-06-23T21:14:56.808Z,16.80
2018-06-23T21:17:30.594Z,16.80
2018-06-23T21:20:04.373Z,16.80
2018-06-23T21:22:39.028Z,16.70
2018-06-23T21:25:12.662Z,16.70
2018-06-23T21:27:46.548Z,16.70
2018-06-23T21:30:20.343Z,16.60
2018-06-23T21:32:54.184Z,16.60
2018-06-23T21:35:28.760Z,16.50
2018-06-23T21:38:03.262Z,16.50
2018-06-23T21:40:36.988Z,16.50
2018-06-23T21:43:10.843Z,16.60
2018-06-23T21:45:44.465Z,16.50
2018-06-23T21:48:18.088Z,16.40
2018-06-23T21:50:51.812Z,16.50
2018-06-23T21:53:25.393Z,16.40
2018-06-23T21:55:59.221Z,16.40
2018-06-23T21:58:33.722Z,16.40
2018-06-23T22:01:08.241Z,16.40
2018-06-23T22:03:41.904Z,16.40
2018-06-23T22:06:16.501Z,16.30
2018-06-23T22:08:50.168Z,16.30
2018-06-23T22:11:24.707Z,16.20
2018-06-23T22:13:58.340Z,16.20
2018-06-23T22:16:32.913Z,16.20
2018-06-23T22:19:07.348Z,16.20
2018-06-23T22:21:41.185Z,16.20
2018-06-23T22:24:14.968Z,16.20
2018-06-23T22:26:48.782Z,16.20
2018-06-23T22:29:23.191Z,16.10
2018-06-23T22:31:56.995Z,16.10
2018-06-23T22:34:31.399Z,16.10
2018-06-23T22:37:05.118Z,16.10
2018-06-23T22:39:39.650Z,16.10
2018-06-23T22:42:13.444Z,16.00
2018-06-23T22:44:47.304Z,16.10
2018-06-23T22:47:21.081Z,16.10
2018-06-23T22:49:54.889Z,16.10
2018-06-23T22:52:28.689Z,16.10
2018-06-23T22:55:03.160Z,16.20
2018-06-23T22:57:37.765Z,16.10
2018-06-23T23:00:12.266Z,16.10
2018-06-23T23:02:46.129Z,16.10
2018-06-23T23:05:20.005Z,16.00
2018-06-23T23:07:53.774Z,16.00
2018-06-23T23:10:27.457Z,15.90
2018-06-23T23:13:01.259Z,15.90
2018-06-23T23:15:34.948Z,15.90
2018-06-23T23:18:09.688Z,15.90
2018-06-23T23:20:43.472Z,15.90
2018-06-23T23:23:17.232Z,15.90
2018-06-23T23:25:51.060Z,15.90
2018-06-23T23:28:24.991Z,15.80
2018-06-23T23:30:59.543Z,15.60
2018-06-23T23:33:33.375Z,15.60
2018-06-23T23:36:07.199Z,15.50
2018-06-23T23:38:41.120Z,15.40
2018-06-23T23:41:14.873Z,15.40
2018-06-23T23:43:48.772Z,15.40
2018-06-23T23:46:22.609Z,15.40
2018-06-23T23:48:56.437Z,15.40
2018-06-23T23:51:30.210Z,15.50
2018-06-23T23:54:04.065Z,15.50
2018-06-23T23:56:37.842Z,15.40
2018-06-23T23:59:12.592Z,15.40
